createdAt,value
2023-01-21T00:18:27.546Z,19.5
2023-01-21T00:48:27.582Z,19.4
2023-01-21T01:18:27.514Z,19.3
2023-01-21T01:48:27.581Z,19.2
2023-01-21T02:18:27.540Z,19.1
2023-01-21T02:48:27.546Z,19.1
2023-01-21T03:18:27.547Z,19.0
2023-01-21T03:48:27.533Z,19.0
2023-01-21T04:18:27.545Z,18.9
2023-01-21T04:48:27.535Z,18.8
2023-01-21T05:18:27.582Z,18.8
2023-01-21T05:48:27.566Z,18.8
2023-01-21T06:18:27.571Z,19.1
2023-01-21T06:48:27.578Z,19.3
2023-01-21T07:18:27.539Z,19.5
2023-01-21T07:48:27.558Z,19.7
2023-01-21T08:18:27.524Z,19.8
2023-01-21T08:48:27.557Z,20.0
2023-01-21T09:18:27.541Z,20.0
2023-01-21T09:48:27.565Z,20.1
2023-01-21T10:18:27.527Z,20.1
2023-01-21T10:48:27.534Z,20.3
2023-01-21T11:18:27.544Z,20.3
2023-01-21T11:48:27.515Z,20.4
2023-01-21T12:18:27.545Z,20.4
2023-01-21T12:48:27.266Z,20.4
2023-01-21T13:18:27.510Z,20.4
2023-01-21T13:48:27.526Z,20.5
2023-01-21T14:18:27.532Z,20.5
2023-01-21T14:48:27.569Z,20.6
2023-01-21T15:18:27.518Z,20.7
2023-01-21T15:48:27.532Z,20.8
2023-01-21T16:18:27.486Z,20.8
2023-01-21T16:48:27.540Z,20.8
2023-01-21T17:18:27.707Z,20.8
2023-01-21T17:48:27.491Z,20.8
2023-01-21T18:18:27.507Z,20.8
2023-01-21T18:48:27.490Z,20.8
2023-01-21T19:18:27.528Z,20.8
2023-01-21T19:48:27.523Z,20.8
2023-01-21T20:18:27.467Z,20.6
2023-01-21T20:48:27.590Z,20.4
2023-01-21T21:18:27.505Z,20.3
2023-01-21T21:48:27.555Z,20.1
2023-01-21T22:18:27.262Z,20.1
2023-01-21T22:48:27.505Z,19.8
2023-01-21T23:18:27.496Z,19.6
2023-01-21T23:48:27.497Z,19.6
